sensor_id;sensor_type;location;lat;lon;timestamp;P1;durP1;ratioP1;P2;durP2;ratioP2
63034;SDS011;59750;53.356;-1.458;2022-11-03T11:06:32;7.85;;;1.77;;
63034;SDS011;59750;53.356;-1.458;2022-11-03T11:09:00;12.07;;;2.85;;
63034;SDS011;59750;53.356;-1.458;2022-11-03T11:11:27;13.65;;;3.22;;
63034;SDS011;59750;53.356;-1.458;2022-11-03T11:17:01;9.88;;;1.90;;
63034;SDS011;59750;53.356;-1.458;2022-11-03T11:19:28;7.95;;;2.35;;
63034;SDS011;59750;53.356;-1.458;2022-11-03T11:21:59;11.45;;;2.58;;
63034;SDS011;59750;53.356;-1.458;2022-11-03T11:29:58;5.78;;;2.15;;
63034;SDS011;59750;53.356;-1.458;2022-11-03T11:35:15;13.75;;;2.03;;
63034;SDS011;59750;53.356;-1.458;2022-11-03T11:37:43;12.77;;;2.22;;
63034;SDS011;59750;53.356;-1.458;2022-11-03T11:40:11;9.27;;;1.92;;
63034;SDS011;59750;53.356;-1.458;2022-11-03T11:43:22;14.82;;;1.90;;
63034;SDS011;59750;53.356;-1.458;2022-11-03T11:48:30;12.85;;;2.60;;
63034;SDS011;59750;53.356;-1.458;2022-11-03T11:50:57;10.63;;;2.15;;
63034;SDS011;59750;53.356;-1.458;2022-11-03T11:53:24;8.45;;;1.98;;
63034;SDS011;59750;53.356;-1.458;2022-11-03T11:55:55;10.48;;;2.58;;
63034;SDS011;59750;53.356;-1.458;2022-11-03T12:01:20;10.80;;;2.97;;
63034;SDS011;59750;53.356;-1.458;2022-11-03T12:03:49;10.65;;;2.47;;
63034;SDS011;59750;53.356;-1.458;2022-11-03T12:06:38;11.43;;;2.30;;
63034;SDS011;59750;53.356;-1.458;2022-11-03T12:09:13;11.50;;;2.25;;
63034;SDS011;59750;53.356;-1.458;2022-11-03T12:11:45;7.32;;;2.40;;
63034;SDS011;59750;53.356;-1.458;2022-11-03T12:17:29;9.20;;;1.90;;
63034;SDS011;59750;53.356;-1.458;2022-11-03T12:27:59;7.78;;;2.20;;
63034;SDS011;59750;53.356;-1.458;2022-11-03T12:30:26;10.18;;;2.53;;
63034;SDS011;59750;53.356;-1.458;2022-11-03T12:32:52;6.90;;;2.10;;
63034;SDS011;59750;53.356;-1.458;2022-11-03T12:35:19;9.68;;;2.22;;
63034;SDS011;59750;53.356;-1.458;2022-11-03T12:37:45;11.80;;;2.13;;
63034;SDS011;59750;53.356;-1.458;2022-11-03T12:40:12;9.45;;;1.63;;
63034;SDS011;59750;53.356;-1.458;2022-11-03T12:42:41;12.90;;;1.88;;
63034;SDS011;59750;53.356;-1.458;2022-11-03T12:45:08;6.75;;;1.98;;
63034;SDS011;59750;53.356;-1.458;2022-11-03T12:47:34;7.97;;;1.67;;
63034;SDS011;59750;53.356;-1.458;2022-11-03T12:50:01;12.02;;;2.50;;
63034;SDS011;59750;53.356;-1.458;2022-11-03T12:52:28;6.47;;;1.50;;
63034;SDS011;59750;53.356;-1.458;2022-11-03T12:54:54;8.45;;;1.92;;
63034;SDS011;59750;53.356;-1.458;2022-11-03T12:57:21;13.02;;;2.08;;
63034;SDS011;59750;53.356;-1.458;2022-11-03T12:59:47;9.40;;;1.60;;
63034;SDS011;59750;53.356;-1.458;2022-11-03T13:02:13;9.75;;;3.38;;
63034;SDS011;59750;53.356;-1.458;2022-11-03T13:04:39;4.80;;;1.83;;
63034;SDS011;59750;53.356;-1.458;2022-11-03T13:07:05;12.27;;;1.95;;
63034;SDS011;59750;53.356;-1.458;2022-11-03T13:09:32;8.07;;;2.20;;
63034;SDS011;59750;53.356;-1.458;2022-11-03T13:12:00;10.00;;;2.35;;
63034;SDS011;59750;53.356;-1.458;2022-11-03T13:14:45;9.82;;;1.55;;
63034;SDS011;59750;53.356;-1.458;2022-11-03T13:17:12;13.05;;;2.47;;
63034;SDS011;59750;53.356;-1.458;2022-11-03T13:19:38;11.95;;;1.98;;
63034;SDS011;59750;53.356;-1.458;2022-11-03T13:22:05;11.45;;;2.08;;
63034;SDS011;59750;53.356;-1.458;2022-11-03T13:24:30;11.80;;;2.22;;
63034;SDS011;59750;53.356;-1.458;2022-11-03T13:26:57;15.25;;;3.20;;
63034;SDS011;59750;53.356;-1.458;2022-11-03T13:29:23;9.65;;;2.40;;
63034;SDS011;59750;53.356;-1.458;2022-11-03T13:31:50;6.47;;;2.03;;
63034;SDS011;59750;53.356;-1.458;2022-11-03T13:34:16;13.68;;;1.85;;
63034;SDS011;59750;53.356;-1.458;2022-11-03T13:36:42;7.75;;;2.05;;
63034;SDS011;59750;53.356;-1.458;2022-11-03T13:39:09;13.20;;;1.98;;
63034;SDS011;59750;53.356;-1.458;2022-11-03T13:41:36;7.05;;;1.85;;
63034;SDS011;59750;53.356;-1.458;2022-11-03T13:44:02;9.68;;;2.40;;
63034;SDS011;59750;53.356;-1.458;2022-11-03T13:46:28;10.68;;;2.22;;
63034;SDS011;59750;53.356;-1.458;2022-11-03T13:48:54;8.30;;;2.33;;
63034;SDS011;59750;53.356;-1.458;2022-11-03T13:51:21;9.43;;;2.80;;
63034;SDS011;59750;53.356;-1.458;2022-11-03T13:53:48;6.97;;;1.80;;
63034;SDS011;59750;53.356;-1.458;2022-11-03T13:56:14;10.63;;;2.67;;
63034;SDS011;59750;53.356;-1.458;2022-11-03T13:58:41;10.65;;;2.78;;
63034;SDS011;59750;53.356;-1.458;2022-11-03T14:01:07;6.43;;;1.85;;
63034;SDS011;59750;53.356;-1.458;2022-11-03T14:03:33;10.63;;;2.22;;
63034;SDS011;59750;53.356;-1.458;2022-11-03T14:06:00;10.25;;;2.00;;
63034;SDS011;59750;53.356;-1.458;2022-11-03T14:08:28;6.60;;;1.70;;
63034;SDS011;59750;53.356;-1.458;2022-11-03T14:10:54;5.78;;;1.55;;
63034;SDS011;59750;53.356;-1.458;2022-11-03T14:13:20;11.05;;;1.83;;
63034;SDS011;59750;53.356;-1.458;2022-11-03T14:15:46;6.20;;;1.65;;
63034;SDS011;59750;53.356;-1.458;2022-11-03T14:18:12;7.10;;;1.52;;
63034;SDS011;59750;53.356;-1.458;2022-11-03T14:20:38;10.15;;;1.45;;
63034;SDS011;59750;53.356;-1.458;2022-11-03T14:23:04;8.10;;;1.58;;
63034;SDS011;59750;53.356;-1.458;2022-11-03T14:25:30;5.60;;;1.48;;
63034;SDS011;59750;53.356;-1.458;2022-11-03T14:27:56;9.73;;;1.60;;
63034;SDS011;59750;53.356;-1.458;2022-11-03T14:30:22;4.10;;;1.80;;
63034;SDS011;59750;53.356;-1.458;2022-11-03T14:32:48;17.80;;;2.47;;
63034;SDS011;59750;53.356;-1.458;2022-11-03T14:35:14;8.98;;;2.65;;
63034;SDS011;59750;53.356;-1.458;2022-11-03T14:37:42;8.43;;;1.52;;
63034;SDS011;59750;53.356;-1.458;2022-11-03T14:40:08;8.57;;;1.90;;
63034;SDS011;59750;53.356;-1.458;2022-11-03T14:42:54;7.18;;;1.30;;
63034;SDS011;59750;53.356;-1.458;2022-11-03T14:45:20;7.35;;;1.45;;
63034;SDS011;59750;53.356;-1.458;2022-11-03T14:47:46;4.75;;;1.45;;
63034;SDS011;59750;53.356;-1.458;2022-11-03T14:50:13;9.73;;;1.85;;
63034;SDS011;59750;53.356;-1.458;2022-11-03T14:52:38;8.00;;;2.63;;
63034;SDS011;59750;53.356;-1.458;2022-11-03T14:55:06;4.65;;;1.58;;
63034;SDS011;59750;53.356;-1.458;2022-11-03T14:57:33;5.65;;;1.10;;
63034;SDS011;59750;53.356;-1.458;2022-11-03T14:59:59;7.80;;;1.90;;
63034;SDS011;59750;53.356;-1.458;2022-11-03T15:02:25;6.82;;;1.70;;
63034;SDS011;59750;53.356;-1.458;2022-11-03T15:04:52;9.73;;;1.83;;
63034;SDS011;59750;53.356;-1.458;2022-11-03T15:07:18;5.80;;;1.50;;
63034;SDS011;59750;53.356;-1.458;2022-11-03T15:09:44;9.85;;;1.80;;
63034;SDS011;59750;53.356;-1.458;2022-11-03T15:12:10;8.05;;;2.20;;
63034;SDS011;59750;53.356;-1.458;2022-11-03T15:14:36;6.40;;;1.50;;
63034;SDS011;59750;53.356;-1.458;2022-11-03T15:17:06;7.15;;;1.33;;
63034;SDS011;59750;53.356;-1.458;2022-11-03T15:19:32;5.53;;;1.42;;
63034;SDS011;59750;53.356;-1.458;2022-11-03T15:21:58;6.38;;;1.33;;
63034;SDS011;59750;53.356;-1.458;2022-11-03T15:24:24;7.47;;;1.55;;
63034;SDS011;59750;53.356;-1.458;2022-11-03T15:26:51;7.15;;;1.10;;
63034;SDS011;59750;53.356;-1.458;2022-11-03T15:29:17;5.55;;;1.20;;
63034;SDS011;59750;53.356;-1.458;2022-11-03T15:31:43;9.02;;;1.83;;
63034;SDS011;59750;53.356;-1.458;2022-11-03T15:34:09;7.28;;;1.95;;
63034;SDS011;59750;53.356;-1.458;2022-11-03T15:36:35;15.75;;;1.80;;
63034;SDS011;59750;53.356;-1.458;2022-11-03T15:39:01;7.57;;;1.77;;
63034;SDS011;59750;53.356;-1.458;2022-11-03T15:41:28;5.85;;;1.55;;
63034;SDS011;59750;53.356;-1.458;2022-11-03T15:43:54;4.15;;;1.10;;
63034;SDS011;59750;53.356;-1.458;2022-11-03T15:46:20;6.82;;;2.15;;
63034;SDS011;59750;53.356;-1.458;2022-11-03T15:48:46;6.50;;;1.40;;
63034;SDS011;59750;53.356;-1.458;2022-11-03T15:51:13;8.52;;;1.75;;
63034;SDS011;59750;53.356;-1.458;2022-11-03T15:53:39;7.53;;;1.58;;
63034;SDS011;59750;53.356;-1.458;2022-11-03T15:56:06;7.25;;;1.63;;
63034;SDS011;59750;53.356;-1.458;2022-11-03T15:58:33;6.47;;;1.50;;
63034;SDS011;59750;53.356;-1.458;2022-11-03T16:01:00;9.88;;;2.67;;
63034;SDS011;59750;53.356;-1.458;2022-11-03T16:03:28;5.80;;;1.38;;
63034;SDS011;59750;53.356;-1.458;2022-11-03T16:05:56;8.98;;;1.58;;
63034;SDS011;59750;53.356;-1.458;2022-11-03T16:08:23;5.70;;;1.60;;
63034;SDS011;59750;53.356;-1.458;2022-11-03T16:10:49;7.30;;;1.80;;
63034;SDS011;59750;53.356;-1.458;2022-11-03T16:13:16;5.88;;;1.60;;
63034;SDS011;59750;53.356;-1.458;2022-11-03T16:15:42;4.43;;;1.17;;
63034;SDS011;59750;53.356;-1.458;2022-11-03T16:18:08;10.02;;;1.70;;
63034;SDS011;59750;53.356;-1.458;2022-11-03T16:20:35;7.38;;;1.40;;
63034;SDS011;59750;53.356;-1.458;2022-11-03T16:23:01;4.80;;;1.08;;
63034;SDS011;59750;53.356;-1.458;2022-11-03T16:25:26;6.35;;;1.30;;
63034;SDS011;59750;53.356;-1.458;2022-11-03T16:27:52;4.85;;;1.10;;
63034;SDS011;59750;53.356;-1.458;2022-11-03T16:30:18;6.45;;;1.85;;
63034;SDS011;59750;53.356;-1.458;2022-11-03T16:32:45;2.45;;;1.23;;
63034;SDS011;59750;53.356;-1.458;2022-11-03T16:35:11;3.70;;;1.27;;
63034;SDS011;59750;53.356;-1.458;2022-11-03T16:37:37;4.72;;;1.30;;
63034;SDS011;59750;53.356;-1.458;2022-11-03T16:40:04;5.43;;;1.75;;
63034;SDS011;59750;53.356;-1.458;2022-11-03T16:42:31;4.72;;;1.40;;
63034;SDS011;59750;53.356;-1.458;2022-11-03T16:45:06;5.70;;;1.47;;
63034;SDS011;59750;53.356;-1.458;2022-11-03T16:47:41;8.70;;;1.85;;
63034;SDS011;59750;53.356;-1.458;2022-11-03T16:50:08;3.42;;;1.20;;
63034;SDS011;59750;53.356;-1.458;2022-11-03T16:52:34;5.53;;;1.52;;
63034;SDS011;59750;53.356;-1.458;2022-11-03T16:55:00;4.65;;;1.20;;
63034;SDS011;59750;53.356;-1.458;2022-11-03T16:57:26;4.70;;;1.40;;
63034;SDS011;59750;53.356;-1.458;2022-11-03T16:59:52;4.78;;;1.48;;
63034;SDS011;59750;53.356;-1.458;2022-11-03T17:02:18;9.63;;;2.13;;
63034;SDS011;59750;53.356;-1.458;2022-11-03T17:04:44;6.35;;;1.63;;
63034;SDS011;59750;53.356;-1.458;2022-11-03T17:07:10;2.97;;;1.40;;
63034;SDS011;59750;53.356;-1.458;2022-11-03T17:09:36;4.90;;;1.67;;
63034;SDS011;59750;53.356;-1.458;2022-11-03T17:12:03;6.22;;;1.40;;
63034;SDS011;59750;53.356;-1.458;2022-11-03T17:14:29;2.80;;;1.40;;
63034;SDS011;59750;53.356;-1.458;2022-11-03T17:16:55;6.63;;;1.65;;
63034;SDS011;59750;53.356;-1.458;2022-11-03T17:19:21;6.03;;;2.08;;
63034;SDS011;59750;53.356;-1.458;2022-11-03T17:21:48;5.72;;;1.60;;
63034;SDS011;59750;53.356;-1.458;2022-11-03T17:24:14;5.72;;;1.92;;
63034;SDS011;59750;53.356;-1.458;2022-11-03T17:29:16;4.13;;;1.58;;
63034;SDS011;59750;53.356;-1.458;2022-11-03T17:31:49;7.28;;;2.30;;
63034;SDS011;59750;53.356;-1.458;2022-11-03T17:34:18;6.28;;;1.95;;
63034;SDS011;59750;53.356;-1.458;2022-11-03T17:36:48;6.07;;;2.58;;
63034;SDS011;59750;53.356;-1.458;2022-11-03T17:39:15;5.53;;;2.08;;
63034;SDS011;59750;53.356;-1.458;2022-11-03T17:41:43;5.38;;;1.98;;
63034;SDS011;59750;53.356;-1.458;2022-11-03T17:44:10;4.00;;;1.85;;
63034;SDS011;59750;53.356;-1.458;2022-11-03T17:46:37;6.60;;;1.90;;
63034;SDS011;59750;53.356;-1.458;2022-11-03T17:49:04;4.13;;;1.40;;
63034;SDS011;59750;53.356;-1.458;2022-11-03T17:51:30;6.50;;;2.10;;
63034;SDS011;59750;53.356;-1.458;2022-11-03T17:53:58;4.38;;;1.90;;
63034;SDS011;59750;53.356;-1.458;2022-11-03T17:56:30;5.90;;;1.73;;
63034;SDS011;59750;53.356;-1.458;2022-11-03T17:58:56;6.00;;;1.80;;
63034;SDS011;59750;53.356;-1.458;2022-11-03T18:01:22;5.72;;;2.30;;
63034;SDS011;59750;53.356;-1.458;2022-11-03T18:03:52;6.40;;;2.20;;
63034;SDS011;59750;53.356;-1.458;2022-11-03T18:06:18;7.35;;;2.15;;
63034;SDS011;59750;53.356;-1.458;2022-11-03T18:08:46;5.97;;;2.05;;
63034;SDS011;59750;53.356;-1.458;2022-11-03T18:11:13;10.80;;;2.75;;
63034;SDS011;59750;53.356;-1.458;2022-11-03T18:14:03;5.03;;;1.80;;
63034;SDS011;59750;53.356;-1.458;2022-11-03T18:16:29;4.07;;;2.05;;
63034;SDS011;59750;53.356;-1.458;2022-11-03T18:18:56;5.30;;;1.88;;
63034;SDS011;59750;53.356;-1.458;2022-11-03T18:21:23;6.35;;;2.55;;
63034;SDS011;59750;53.356;-1.458;2022-11-03T18:23:49;7.72;;;2.50;;
63034;SDS011;59750;53.356;-1.458;2022-11-03T18:26:16;10.93;;;2.88;;
63034;SDS011;59750;53.356;-1.458;2022-11-03T18:28:44;5.82;;;2.35;;
63034;SDS011;59750;53.356;-1.458;2022-11-03T18:31:17;11.25;;;2.63;;
63034;SDS011;59750;53.356;-1.458;2022-11-03T18:33:55;6.25;;;2.55;;
63034;SDS011;59750;53.356;-1.458;2022-11-03T18:36:21;5.60;;;2.50;;
63034;SDS011;59750;53.356;-1.458;2022-11-03T18:38:47;6.93;;;3.00;;
63034;SDS011;59750;53.356;-1.458;2022-11-03T18:41:18;9.88;;;3.22;;
63034;SDS011;59750;53.356;-1.458;2022-11-03T18:44:09;7.15;;;2.78;;
63034;SDS011;59750;53.356;-1.458;2022-11-03T18:46:41;7.88;;;2.97;;
63034;SDS011;59750;53.356;-1.458;2022-11-03T18:49:08;6.45;;;2.75;;
63034;SDS011;59750;53.356;-1.458;2022-11-03T18:51:34;5.55;;;3.60;;
63034;SDS011;59750;53.356;-1.458;2022-11-03T18:54:01;5.90;;;3.15;;
63034;SDS011;59750;53.356;-1.458;2022-11-03T18:56:27;5.88;;;2.92;;
63034;SDS011;59750;53.356;-1.458;2022-11-03T18:58:54;9.75;;;3.17;;
63034;SDS011;59750;53.356;-1.458;2022-11-03T19:01:23;19.42;;;3.30;;
63034;SDS011;59750;53.356;-1.458;2022-11-03T19:03:52;10.70;;;3.33;;
63034;SDS011;59750;53.356;-1.458;2022-11-03T19:06:19;7.22;;;2.90;;
63034;SDS011;59750;53.356;-1.458;2022-11-03T19:08:45;7.30;;;3.40;;
63034;SDS011;59750;53.356;-1.458;2022-11-03T19:11:12;10.40;;;4.45;;
63034;SDS011;59750;53.356;-1.458;2022-11-03T19:13:41;8.52;;;4.07;;
63034;SDS011;59750;53.356;-1.458;2022-11-03T19:16:11;8.00;;;4.32;;
63034;SDS011;59750;53.356;-1.458;2022-11-03T19:18:57;7.60;;;4.15;;
63034;SDS011;59750;53.356;-1.458;2022-11-03T19:21:24;9.82;;;3.83;;
63034;SDS011;59750;53.356;-1.458;2022-11-03T19:23:51;6.68;;;3.40;;
63034;SDS011;59750;53.356;-1.458;2022-11-03T19:26:20;7.53;;;3.85;;
63034;SDS011;59750;53.356;-1.458;2022-11-03T19:28:50;7.95;;;4.35;;
63034;SDS011;59750;53.356;-1.458;2022-11-03T19:31:29;10.57;;;5.93;;
63034;SDS011;59750;53.356;-1.458;2022-11-03T19:33:56;13.45;;;5.93;;
63034;SDS011;59750;53.356;-1.458;2022-11-03T19:36:23;9.90;;;5.90;;
63034;SDS011;59750;53.356;-1.458;2022-11-03T19:38:50;10.70;;;5.85;;
63034;SDS011;59750;53.356;-1.458;2022-11-03T19:41:17;11.45;;;6.65;;
63034;SDS011;59750;53.356;-1.458;2022-11-03T19:44:04;10.90;;;6.65;;
63034;SDS011;59750;53.356;-1.458;2022-11-03T19:46:37;13.80;;;7.15;;
63034;SDS011;59750;53.356;-1.458;2022-11-03T19:49:05;12.90;;;7.93;;
63034;SDS011;59750;53.356;-1.458;2022-11-03T19:51:32;12.10;;;6.68;;
63034;SDS011;59750;53.356;-1.458;2022-11-03T19:54:02;12.30;;;7.30;;
63034;SDS011;59750;53.356;-1.458;2022-11-03T19:56:31;12.15;;;6.60;;
63034;SDS011;59750;53.356;-1.458;2022-11-03T19:58:58;16.42;;;6.88;;
63034;SDS011;59750;53.356;-1.458;2022-11-03T20:01:27;11.32;;;6.43;;
63034;SDS011;59750;53.356;-1.458;2022-11-03T20:03:53;13.55;;;6.25;;
63034;SDS011;59750;53.356;-1.458;2022-11-03T20:06:20;11.30;;;6.95;;
63034;SDS011;59750;53.356;-1.458;2022-11-03T20:08:46;14.55;;;7.65;;
63034;SDS011;59750;53.356;-1.458;2022-11-03T20:11:13;12.38;;;8.10;;
63034;SDS011;59750;53.356;-1.458;2022-11-03T20:13:40;15.40;;;8.90;;
63034;SDS011;59750;53.356;-1.458;2022-11-03T20:16:09;14.07;;;8.02;;
63034;SDS011;59750;53.356;-1.458;2022-11-03T20:18:55;12.70;;;7.68;;
63034;SDS011;59750;53.356;-1.458;2022-11-03T20:21:22;15.65;;;8.07;;
63034;SDS011;59750;53.356;-1.458;2022-11-03T20:23:49;12.45;;;7.03;;
63034;SDS011;59750;53.356;-1.458;2022-11-03T20:26:17;16.40;;;8.25;;
63034;SDS011;59750;53.356;-1.458;2022-11-03T20:28:46;16.80;;;8.88;;
63034;SDS011;59750;53.356;-1.458;2022-11-03T20:31:14;12.60;;;7.55;;
63034;SDS011;59750;53.356;-1.458;2022-11-03T20:33:41;12.85;;;8.13;;
63034;SDS011;59750;53.356;-1.458;2022-11-03T20:36:14;16.75;;;9.05;;
63034;SDS011;59750;53.356;-1.458;2022-11-03T20:38:50;13.25;;;8.90;;
63034;SDS011;59750;53.356;-1.458;2022-11-03T20:41:25;17.23;;;9.05;;
63034;SDS011;59750;53.356;-1.458;2022-11-03T20:43:54;13.23;;;8.95;;
63034;SDS011;59750;53.356;-1.458;2022-11-03T20:46:23;17.67;;;9.98;;
63034;SDS011;59750;53.356;-1.458;2022-11-03T20:48:52;14.57;;;9.70;;
63034;SDS011;59750;53.356;-1.458;2022-11-03T20:51:21;17.75;;;10.20;;
63034;SDS011;59750;53.356;-1.458;2022-11-03T20:53:50;19.02;;;10.90;;
63034;SDS011;59750;53.356;-1.458;2022-11-03T20:56:18;19.58;;;10.82;;
63034;SDS011;59750;53.356;-1.458;2022-11-03T20:58:48;16.75;;;11.38;;
63034;SDS011;59750;53.356;-1.458;2022-11-03T21:01:15;18.58;;;10.48;;
63034;SDS011;59750;53.356;-1.458;2022-11-03T21:03:44;15.30;;;10.52;;
63034;SDS011;59750;53.356;-1.458;2022-11-03T21:06:12;20.27;;;11.32;;
63034;SDS011;59750;53.356;-1.458;2022-11-03T21:08:42;20.67;;;11.10;;
63034;SDS011;59750;53.356;-1.458;2022-11-03T21:11:13;15.68;;;10.25;;
63034;SDS011;59750;53.356;-1.458;2022-11-03T21:13:50;20.42;;;11.30;;
63034;SDS011;59750;53.356;-1.458;2022-11-03T21:16:17;14.05;;;9.15;;
63034;SDS011;59750;53.356;-1.458;2022-11-03T21:19:07;18.48;;;9.88;;
63034;SDS011;59750;53.356;-1.458;2022-11-03T21:21:58;15.93;;;10.15;;
63034;SDS011;59750;53.356;-1.458;2022-11-03T21:24:24;14.73;;;10.88;;
63034;SDS011;59750;53.356;-1.458;2022-11-03T21:26:50;14.02;;;9.65;;
63034;SDS011;59750;53.356;-1.458;2022-11-03T21:29:16;15.45;;;9.60;;
63034;SDS011;59750;53.356;-1.458;2022-11-03T21:31:43;12.82;;;9.45;;
63034;SDS011;59750;53.356;-1.458;2022-11-03T21:34:09;20.15;;;10.00;;
63034;SDS011;59750;53.356;-1.458;2022-11-03T21:36:35;17.85;;;10.05;;
63034;SDS011;59750;53.356;-1.458;2022-11-03T21:39:01;17.15;;;9.55;;
